createdAt,value
2022-10-16T00:01:09.968Z,87.28
2022-10-16T00:03:37.972Z,87.66
2022-10-16T00:06:06.881Z,87.38
2022-10-16T00:08:36.175Z,86.88
2022-10-16T00:11:06.502Z,86.73
2022-10-16T00:13:35.768Z,87.91
2022-10-16T00:16:04.462Z,87.76
2022-10-16T00:18:35.135Z,86.96
2022-10-16T00:21:08.178Z,86.55
2022-10-16T00:23:37.102Z,88.14
2022-10-16T00:26:07.543Z,88.88
2022-10-16T00:28:36.449Z,87.64
2022-10-16T00:31:07.364Z,87.10
2022-10-16T00:33:37.228Z,87.72
2022-10-16T00:36:07.435Z,88.21
2022-10-16T00:38:35.717Z,88.90
2022-10-16T00:41:03.781Z,89.98
2022-10-16T00:43:38.276Z,90.65
2022-10-16T00:46:11.185Z,90.58
2022-10-16T00:48:40.689Z,91.01
2022-10-16T00:51:09.639Z,94.27
2022-10-16T00:53:38.748Z,95.04
2022-10-16T00:56:07.319Z,97.19
2022-10-16T00:58:35.326Z,100.00
2022-10-16T01:01:03.443Z,99.58
2022-10-16T01:03:33.427Z,98.05
2022-10-16T01:06:15.738Z,96.47
2022-10-16T01:08:56.306Z,96.33
2022-10-16T01:11:31.240Z,95.91
2022-10-16T01:14:07.898Z,94.25
2022-10-16T01:16:41.727Z,95.31
2022-10-16T01:19:16.104Z,99.28
2022-10-16T01:21:49.110Z,96.30
2022-10-16T01:24:33.553Z,94.75
2022-10-16T01:27:17.025Z,94.29
2022-10-16T01:29:53.870Z,93.56
2022-10-16T01:32:29.075Z,93.78
2022-10-16T01:35:04.177Z,94.94
2022-10-16T01:37:37.838Z,97.51
2022-10-16T01:40:11.498Z,100.00
2022-10-16T01:42:44.109Z,100.00
2022-10-16T01:45:15.088Z,100.00
2022-10-16T01:47:44.809Z,100.00
2022-10-16T01:50:14.933Z,100.00
2022-10-16T01:52:47.285Z,100.00
2022-10-16T01:55:19.837Z,97.33
2022-10-16T01:57:52.506Z,95.14
2022-10-16T02:00:23.008Z,93.59
2022-10-16T02:02:54.297Z,93.61
2022-10-16T02:05:27.594Z,92.78
2022-10-16T02:07:56.029Z,91.10
2022-10-16T02:10:25.986Z,88.97
2022-10-16T02:13:01.705Z,89.20
2022-10-16T02:15:29.734Z,88.99
2022-10-16T02:17:57.818Z,88.90
2022-10-16T02:20:30.257Z,87.62
2022-10-16T02:22:59.015Z,88.33
2022-10-16T02:25:32.027Z,88.36
2022-10-16T02:28:06.607Z,88.75
2022-10-16T02:30:38.948Z,88.19
2022-10-16T02:33:11.813Z,88.22
2022-10-16T02:35:40.749Z,88.26
2022-10-16T02:40:39.320Z,90.01
2022-10-16T02:43:09.724Z,90.68
2022-10-16T02:45:37.756Z,90.69
2022-10-16T02:48:05.902Z,90.70
2022-10-16T02:50:34.091Z,90.49
2022-10-16T02:53:02.082Z,89.77
2022-10-16T02:55:30.103Z,90.77
2022-10-16T02:57:58.278Z,91.02
2022-10-16T03:00:27.650Z,91.39
2022-10-16T03:02:55.585Z,92.35
2022-10-16T03:05:23.675Z,93.08
2022-10-16T03:07:53.706Z,92.44
2022-10-16T03:10:21.653Z,92.44
2022-10-16T03:12:49.565Z,91.64
2022-10-16T03:15:17.812Z,90.66
2022-10-16T03:17:47.199Z,90.33
2022-10-16T03:20:15.174Z,90.61
2022-10-16T03:22:43.096Z,90.94
2022-10-16T03:25:11.436Z,90.77
2022-10-16T03:27:39.426Z,90.79
2022-10-16T03:30:08.555Z,90.73
2022-10-16T03:35:11.287Z,90.44
2022-10-16T03:37:39.265Z,89.94
2022-10-16T03:40:08.130Z,90.10
2022-10-16T03:42:36.096Z,90.22
2022-10-16T03:45:04.043Z,90.67
2022-10-16T03:47:34.040Z,90.73
2022-10-16T03:50:02.125Z,92.56
2022-10-16T03:52:31.509Z,91.97
2022-10-16T03:54:59.617Z,90.15
2022-10-16T03:57:27.864Z,90.04
2022-10-16T03:59:56.014Z,89.29
2022-10-16T04:02:24.098Z,89.82
2022-10-16T04:04:52.017Z,90.06
2022-10-16T04:07:20.106Z,89.90
2022-10-16T04:09:49.415Z,91.07
2022-10-16T04:12:17.348Z,91.28
2022-10-16T04:14:45.328Z,89.65
2022-10-16T04:17:13.250Z,89.87
2022-10-16T04:19:41.193Z,90.17
2022-10-16T04:22:09.152Z,90.17
2022-10-16T04:24:37.404Z,90.56
2022-10-16T04:27:06.846Z,90.83
2022-10-16T04:29:34.778Z,91.33
2022-10-16T04:32:02.834Z,92.04
2022-10-16T04:34:30.903Z,91.29
2022-10-16T04:36:58.824Z,91.10
2022-10-16T04:39:26.897Z,90.14
2022-10-16T04:41:54.807Z,89.75
2022-10-16T04:44:24.254Z,89.90
2022-10-16T04:46:52.985Z,90.05
2022-10-16T04:49:21.102Z,90.37
2022-10-16T04:51:49.025Z,90.28
2022-10-16T04:54:17.166Z,89.85
2022-10-16T04:56:48.368Z,90.34
2022-10-16T04:59:16.889Z,90.42
2022-10-16T05:01:46.734Z,90.63
2022-10-16T05:04:16.091Z,90.13
2022-10-16T05:06:44.246Z,89.87
2022-10-16T05:09:12.479Z,90.22
2022-10-16T05:11:40.397Z,90.70
2022-10-16T05:14:08.754Z,90.91
2022-10-16T05:16:36.714Z,91.59
2022-10-16T05:19:27.997Z,91.16
2022-10-16T05:21:56.569Z,91.56
2022-10-16T05:24:24.623Z,91.44
2022-10-16T05:26:53.211Z,91.39
2022-10-16T05:29:21.777Z,91.53
2022-10-16T05:31:52.863Z,91.65
2022-10-16T05:34:22.626Z,92.26
2022-10-16T05:36:51.366Z,92.75
2022-10-16T05:39:19.475Z,92.54
2022-10-16T05:41:47.735Z,93.47
2022-10-16T05:44:15.660Z,92.85
2022-10-16T05:46:43.602Z,93.76
2022-10-16T05:49:11.623Z,94.15
2022-10-16T05:51:41.192Z,95.01
2022-10-16T05:54:09.171Z,94.62
2022-10-16T05:56:37.093Z,94.69
2022-10-16T05:59:05.794Z,94.65
2022-10-16T06:01:34.444Z,93.68
2022-10-16T06:04:02.514Z,93.73
2022-10-16T06:06:32.002Z,94.91
2022-10-16T06:09:01.333Z,93.48
2022-10-16T06:11:31.385Z,93.58
2022-10-16T06:14:02.777Z,93.35
2022-10-16T06:16:31.154Z,94.08
2022-10-16T06:19:00.325Z,93.83
2022-10-16T06:21:30.416Z,96.48
2022-10-16T06:23:59.125Z,96.30
2022-10-16T06:26:30.881Z,97.44
2022-10-16T06:29:00.758Z,96.96
2022-10-16T06:31:32.108Z,95.70
2022-10-16T06:34:00.600Z,96.03
2022-10-16T06:36:28.855Z,95.25
2022-10-16T06:38:57.005Z,93.28
2022-10-16T06:41:25.467Z,93.33
2022-10-16T06:43:54.938Z,93.84
2022-10-16T06:46:25.421Z,94.22
2022-10-16T06:48:54.094Z,93.07
2022-10-16T06:51:23.640Z,92.79
2022-10-16T06:54:08.411Z,90.59
2022-10-16T06:56:36.597Z,89.17
2022-10-16T06:59:06.429Z,90.33
2022-10-16T07:01:35.269Z,90.39
2022-10-16T07:04:04.285Z,91.12
2022-10-16T07:06:34.296Z,92.19
2022-10-16T07:09:05.417Z,89.63
2022-10-16T07:11:33.575Z,89.60
2022-10-16T07:14:01.950Z,89.52
2022-10-16T07:16:33.315Z,86.71
2022-10-16T07:19:02.801Z,87.63
2022-10-16T07:21:32.524Z,85.96
2022-10-16T07:24:02.655Z,87.72
2022-10-16T07:26:32.901Z,85.39
2022-10-16T07:29:01.920Z,87.11
2022-10-16T07:31:31.613Z,88.89
2022-10-16T07:34:00.902Z,86.34
2022-10-16T07:36:29.738Z,84.60
2022-10-16T07:39:00.166Z,84.88
2022-10-16T07:41:29.829Z,85.49
2022-10-16T07:44:01.206Z,82.74
2022-10-16T07:46:32.004Z,81.50
2022-10-16T07:48:59.983Z,81.63
2022-10-16T07:51:28.541Z,78.75
2022-10-16T07:53:56.774Z,78.95
2022-10-16T07:56:25.260Z,79.78
2022-10-16T07:58:53.608Z,76.11
2022-10-16T08:01:22.191Z,76.64
2022-10-16T08:03:53.825Z,77.15
2022-10-16T08:06:27.614Z,77.54
2022-10-16T08:08:57.041Z,79.04
2022-10-16T08:11:25.502Z,76.06
2022-10-16T08:13:53.982Z,76.23
2022-10-16T08:16:22.143Z,74.36
2022-10-16T08:18:52.651Z,74.58
2022-10-16T08:21:22.824Z,68.98
2022-10-16T08:23:54.855Z,67.17
2022-10-16T08:26:27.223Z,64.86
2022-10-16T08:28:56.095Z,65.61
2022-10-16T08:31:24.394Z,65.63
2022-10-16T08:33:54.258Z,62.71
2022-10-16T08:36:22.522Z,62.13
2022-10-16T08:38:52.131Z,60.78
2022-10-16T08:42:00.117Z,61.21
2022-10-16T08:44:38.309Z,61.03
2022-10-16T08:47:15.376Z,60.79
2022-10-16T08:49:56.811Z,58.99
2022-10-16T08:52:26.404Z,60.26
2022-10-16T08:54:57.553Z,59.08
2022-10-16T08:57:28.519Z,56.76
2022-10-16T09:00:01.529Z,57.00
2022-10-16T09:02:35.462Z,57.80
2022-10-16T09:05:27.409Z,58.47
2022-10-16T09:08:13.405Z,58.11
2022-10-16T09:10:51.119Z,56.27
2022-10-16T09:13:26.059Z,58.70
2022-10-16T09:16:01.171Z,58.03
2022-10-16T09:18:36.405Z,54.85
2022-10-16T09:21:12.548Z,53.18
2022-10-16T09:23:42.300Z,55.47
2022-10-16T09:26:15.387Z,56.18
2022-10-16T09:28:44.367Z,56.36
2022-10-16T09:31:18.887Z,55.33
2022-10-16T09:33:52.647Z,53.69
2022-10-16T09:36:22.795Z,54.64
2022-10-16T09:38:55.181Z,54.28
2022-10-16T09:41:26.515Z,54.39
2022-10-16T09:43:58.104Z,53.16
2022-10-16T09:46:30.927Z,50.91
2022-10-16T09:49:01.249Z,50.43
2022-10-16T09:51:31.173Z,51.29
2022-10-16T09:54:02.878Z,52.26
2022-10-16T09:56:33.772Z,50.68
2022-10-16T09:59:05.376Z,53.25
2022-10-16T10:01:39.700Z,52.67
2022-10-16T10:04:08.952Z,53.32
2022-10-16T10:06:39.996Z,52.13
2022-10-16T10:09:20.315Z,53.55
2022-10-16T10:11:54.153Z,50.78
2022-10-16T10:14:29.197Z,52.10
2022-10-16T10:17:12.102Z,52.03
2022-10-16T10:19:41.869Z,51.73
2022-10-16T10:22:20.405Z,50.85
2022-10-16T10:25:00.104Z,52.05
2022-10-16T10:27:38.408Z,51.21
2022-10-16T10:33:08.458Z,52.29
2022-10-16T10:35:43.798Z,49.87
2022-10-16T10:38:27.027Z,51.28
2022-10-16T10:41:06.179Z,49.76
2022-10-16T10:43:51.512Z,49.73
2022-10-16T10:46:31.055Z,50.19
2022-10-16T10:49:28.272Z,49.68
2022-10-16T10:52:04.565Z,50.33
2022-10-16T10:54:43.892Z,51.65
2022-10-16T10:57:25.098Z,49.07
2022-10-16T11:00:19.235Z,49.72
2022-10-16T11:02:54.563Z,50.74
2022-10-16T11:05:44.751Z,50.81
2022-10-16T11:08:18.688Z,50.29
2022-10-16T11:10:49.636Z,48.49
2022-10-16T11:13:32.576Z,49.19
2022-10-16T11:16:05.480Z,49.80
2022-10-16T11:18:44.996Z,49.70
2022-10-16T11:21:16.915Z,49.21
2022-10-16T11:23:53.845Z,48.73
2022-10-16T11:26:25.631Z,49.46
2022-10-16T11:28:57.422Z,48.35
2022-10-16T11:31:33.265Z,49.30
2022-10-16T11:34:06.729Z,49.47
2022-10-16T11:36:41.223Z,48.78
2022-10-16T11:39:21.992Z,50.96
2022-10-16T11:41:53.483Z,50.62
2022-10-16T11:44:44.542Z,49.15
2022-10-16T11:47:53.766Z,50.34
2022-10-16T11:50:24.840Z,48.88
2022-10-16T11:52:59.124Z,49.55
2022-10-16T11:55:33.963Z,50.38
2022-10-16T11:58:08.543Z,49.28
2022-10-16T12:00:46.378Z,50.35
2022-10-16T12:03:23.011Z,50.54
2022-10-16T12:06:05.083Z,49.70
2022-10-16T12:08:36.742Z,50.22
2022-10-16T12:11:22.902Z,49.68
2022-10-16T12:13:51.416Z,49.37
2022-10-16T12:16:25.914Z,49.71
2022-10-16T12:19:13.197Z,50.06
2022-10-16T12:21:42.291Z,50.59
2022-10-16T12:24:24.079Z,48.96
2022-10-16T12:26:54.928Z,50.06
2022-10-16T12:29:30.962Z,50.40
2022-10-16T12:32:01.194Z,49.50
2022-10-16T12:34:32.353Z,48.91
2022-10-16T12:37:17.595Z,49.32
2022-10-16T12:39:46.279Z,49.05
2022-10-16T12:42:26.386Z,49.11
2022-10-16T12:44:55.766Z,48.51
2022-10-16T12:47:39.013Z,47.63
2022-10-16T12:50:27.035Z,48.27
2022-10-16T12:52:55.476Z,49.18
2022-10-16T12:55:25.323Z,49.96
2022-10-16T12:58:16.363Z,50.45
2022-10-16T13:00:48.374Z,49.86
2022-10-16T13:03:57.271Z,51.13
2022-10-16T13:06:38.913Z,51.39
2022-10-16T13:09:30.648Z,51.15
2022-10-16T13:12:12.515Z,49.37
2022-10-16T13:14:57.682Z,49.50
2022-10-16T13:17:32.916Z,50.34
2022-10-16T13:20:15.047Z,50.51
2022-10-16T13:23:01.358Z,49.21
2022-10-16T13:25:41.569Z,48.46
2022-10-16T13:28:12.718Z,48.73
2022-10-16T13:30:44.515Z,48.88
2022-10-16T13:33:19.600Z,50.26
2022-10-16T13:35:55.014Z,51.35
2022-10-16T13:38:25.025Z,51.05
2022-10-16T13:40:56.410Z,51.14
2022-10-16T13:43:30.512Z,49.50
2022-10-16T13:46:00.796Z,48.45
2022-10-16T13:48:29.323Z,47.37
2022-10-16T13:51:19.358Z,48.31
2022-10-16T13:53:48.504Z,50.17
2022-10-16T13:56:19.879Z,50.36
2022-10-16T13:58:48.634Z,50.75
2022-10-16T14:01:20.617Z,50.61
2022-10-16T14:03:50.260Z,51.69
2022-10-16T14:06:24.424Z,53.39
2022-10-16T14:08:56.156Z,50.98
2022-10-16T14:11:25.855Z,51.89
2022-10-16T14:13:55.552Z,51.06
2022-10-16T14:16:26.051Z,48.71
2022-10-16T14:19:00.044Z,49.83
2022-10-16T14:21:29.904Z,50.61
2022-10-16T14:23:58.477Z,49.37
2022-10-16T14:26:30.130Z,49.37
2022-10-16T14:29:13.505Z,49.32
2022-10-16T14:31:42.115Z,50.19
2022-10-16T14:34:28.526Z,50.71
2022-10-16T14:36:58.993Z,50.58
2022-10-16T14:39:28.790Z,52.47
2022-10-16T14:42:00.073Z,53.76
2022-10-16T14:44:33.777Z,52.14
2022-10-16T14:47:11.783Z,52.42
2022-10-16T14:49:39.900Z,53.25
2022-10-16T14:52:13.861Z,51.93
2022-10-16T14:54:41.715Z,53.20
2022-10-16T14:57:19.509Z,54.89
2022-10-16T14:59:48.357Z,54.92
2022-10-16T15:02:25.635Z,56.55
2022-10-16T15:04:53.858Z,58.35
2022-10-16T15:07:24.196Z,57.59
2022-10-16T15:09:52.754Z,58.12
2022-10-16T15:12:20.839Z,58.79
2022-10-16T15:14:48.862Z,59.32
2022-10-16T15:17:18.736Z,59.52
2022-10-16T15:19:49.536Z,60.68
2022-10-16T15:22:17.616Z,60.78
2022-10-16T15:24:47.216Z,61.73
2022-10-16T15:27:15.345Z,61.79
2022-10-16T15:29:43.373Z,62.15
2022-10-16T15:32:12.808Z,62.38
2022-10-16T15:34:40.887Z,62.28
2022-10-16T15:37:08.940Z,62.53
2022-10-16T15:39:40.546Z,62.97
2022-10-16T15:42:11.082Z,63.60
2022-10-16T15:44:39.189Z,64.02
2022-10-16T15:47:07.144Z,63.53
2022-10-16T15:49:35.142Z,63.54
2022-10-16T15:52:03.215Z,63.23
2022-10-16T15:54:31.307Z,63.32
2022-10-16T15:56:59.372Z,63.91
2022-10-16T15:59:29.161Z,64.49
2022-10-16T16:01:57.253Z,65.21
2022-10-16T16:04:42.814Z,65.65
2022-10-16T16:07:12.437Z,66.61
2022-10-16T16:09:40.426Z,66.96
2022-10-16T16:12:08.553Z,67.64
2022-10-16T16:14:38.275Z,68.10
2022-10-16T16:17:06.367Z,68.28
2022-10-16T16:19:35.173Z,68.51
2022-10-16T16:22:03.377Z,68.56
2022-10-16T16:24:31.448Z,69.10
2022-10-16T16:26:59.552Z,69.29
2022-10-16T16:29:28.031Z,69.51
2022-10-16T16:32:00.452Z,69.72
2022-10-16T16:34:29.596Z,69.50
2022-10-16T16:36:58.249Z,68.73
2022-10-16T16:39:27.046Z,68.49
2022-10-16T16:41:57.487Z,69.11
2022-10-16T16:44:25.636Z,68.67
2022-10-16T16:46:54.151Z,68.47
2022-10-16T16:49:24.044Z,68.53
2022-10-16T16:51:52.491Z,69.68
2022-10-16T16:54:20.945Z,70.97
2022-10-16T16:56:49.513Z,71.63
2022-10-16T16:59:19.123Z,72.50
2022-10-16T17:01:48.504Z,72.36
2022-10-16T17:04:18.377Z,73.03
2022-10-16T17:06:48.348Z,73.70
2022-10-16T17:09:16.607Z,73.85
2022-10-16T17:11:46.122Z,74.47
2022-10-16T17:14:14.573Z,74.42
2022-10-16T17:16:45.053Z,74.24
2022-10-16T17:19:15.937Z,75.08
2022-10-16T17:21:44.979Z,74.53
2022-10-16T17:24:14.793Z,75.04
2022-10-16T17:26:48.924Z,74.70
2022-10-16T17:29:18.214Z,75.68
2022-10-16T17:31:49.934Z,75.42
2022-10-16T17:34:18.813Z,75.04
2022-10-16T17:36:47.925Z,75.12
2022-10-16T17:39:19.364Z,75.62
2022-10-16T17:41:48.599Z,75.42
2022-10-16T17:44:21.192Z,75.66
2022-10-16T17:46:51.392Z,75.97
2022-10-16T17:49:19.900Z,75.69
2022-10-16T17:51:51.299Z,75.86
2022-10-16T17:54:21.742Z,76.09
2022-10-16T17:56:50.168Z,75.46
2022-10-16T17:59:18.425Z,75.71
2022-10-16T18:01:46.711Z,75.83
2022-10-16T18:04:17.534Z,75.66
2022-10-16T18:06:48.077Z,75.78
2022-10-16T18:09:19.704Z,75.62
2022-10-16T18:11:52.733Z,76.28
2022-10-16T18:14:21.344Z,76.31
2022-10-16T18:19:19.074Z,75.57
2022-10-16T18:21:49.447Z,76.12
2022-10-16T18:24:17.801Z,76.01
2022-10-16T18:26:46.377Z,75.90
2022-10-16T18:29:16.268Z,75.54
2022-10-16T18:31:44.290Z,75.17
2022-10-16T18:34:12.744Z,76.45
2022-10-16T18:36:42.576Z,76.17
2022-10-16T18:39:12.401Z,76.70
2022-10-16T18:41:42.240Z,76.54
2022-10-16T18:44:11.507Z,76.40
2022-10-16T18:46:41.495Z,76.46
2022-10-16T18:49:09.621Z,76.84
2022-10-16T18:51:39.272Z,76.52
2022-10-16T18:54:11.587Z,76.79
2022-10-16T18:56:40.697Z,77.27
2022-10-16T18:59:10.272Z,77.23
2022-10-16T19:01:40.179Z,77.62
2022-10-16T19:04:11.348Z,78.05
2022-10-16T19:06:42.944Z,78.38
2022-10-16T19:09:12.296Z,78.61
2022-10-16T19:11:41.900Z,78.42
2022-10-16T19:14:10.297Z,78.77
2022-10-16T19:16:39.066Z,78.70
2022-10-16T19:19:11.561Z,79.02
2022-10-16T19:21:41.607Z,78.77
2022-10-16T19:24:13.435Z,79.03
2022-10-16T19:26:42.376Z,79.26
2022-10-16T19:29:11.723Z,79.15
2022-10-16T19:31:40.352Z,78.84
2022-10-16T19:34:12.120Z,79.60
2022-10-16T19:36:41.671Z,79.88
2022-10-16T19:39:13.729Z,80.62
2022-10-16T19:41:42.389Z,79.89
2022-10-16T19:44:13.474Z,80.42
2022-10-16T19:46:41.954Z,79.46
2022-10-16T19:49:13.510Z,79.45
2022-10-16T19:51:42.353Z,79.20
2022-10-16T19:54:14.527Z,78.87
2022-10-16T19:56:44.228Z,79.35
2022-10-16T19:59:16.432Z,80.09
2022-10-16T20:01:44.554Z,79.48
2022-10-16T20:04:14.583Z,80.92
2022-10-16T20:06:42.790Z,81.17
2022-10-16T20:09:10.864Z,80.82
2022-10-16T20:11:39.435Z,80.81
2022-10-16T20:14:08.015Z,79.84
2022-10-16T20:16:36.506Z,81.10
2022-10-16T20:19:05.585Z,81.04
2022-10-16T20:21:36.306Z,80.89
2022-10-16T20:24:06.729Z,79.68
2022-10-16T20:26:35.659Z,80.06
2022-10-16T20:29:05.699Z,79.31
2022-10-16T20:31:35.662Z,79.31
2022-10-16T20:34:07.151Z,78.65
2022-10-16T20:36:38.159Z,79.26
2022-10-16T20:39:07.757Z,77.40
2022-10-16T20:41:36.042Z,78.11
2022-10-16T20:44:04.962Z,78.13
2022-10-16T20:46:33.621Z,78.18
2022-10-16T20:49:10.732Z,77.93
2022-10-16T20:51:41.481Z,78.03
2022-10-16T20:54:09.649Z,78.11
2022-10-16T20:56:38.680Z,77.01
2022-10-16T20:59:08.029Z,78.22
2022-10-16T21:01:37.128Z,77.12
2022-10-16T21:04:07.487Z,77.72
2022-10-16T21:06:37.919Z,76.16
2022-10-16T21:09:10.421Z,74.65
2022-10-16T21:11:39.459Z,76.51
2022-10-16T21:14:09.888Z,74.38
2022-10-16T21:16:38.391Z,75.84
2022-10-16T21:19:06.981Z,74.88
2022-10-16T21:21:38.061Z,75.36
2022-10-16T21:24:12.167Z,73.36
2022-10-16T21:26:43.301Z,74.87
2022-10-16T21:29:11.530Z,74.88
2022-10-16T21:31:39.703Z,73.99
2022-10-16T21:34:07.823Z,73.30
2022-10-16T21:36:37.949Z,74.24
2022-10-16T21:39:09.220Z,73.52
2022-10-16T21:41:38.100Z,73.48
2022-10-16T21:44:07.084Z,73.83
2022-10-16T21:46:37.141Z,73.45
2022-10-16T21:49:08.688Z,73.88
2022-10-16T21:51:39.187Z,73.13
2022-10-16T21:54:12.860Z,73.35
2022-10-16T21:56:41.368Z,73.56
2022-10-16T21:59:09.695Z,74.27
2022-10-16T22:01:37.834Z,73.78
2022-10-16T22:04:06.045Z,73.79
2022-10-16T22:06:34.685Z,74.66
2022-10-16T22:09:02.837Z,74.82
2022-10-16T22:11:37.113Z,74.39
2022-10-16T22:14:06.540Z,75.20
2022-10-16T22:16:36.197Z,75.29
2022-10-16T22:19:07.396Z,74.34
2022-10-16T22:21:37.305Z,75.17
2022-10-16T22:24:06.430Z,76.56
2022-10-16T22:26:37.641Z,77.08
2022-10-16T22:29:06.790Z,76.65
2022-10-16T22:31:35.619Z,76.32
2022-10-16T22:34:05.607Z,76.72
2022-10-16T22:36:34.329Z,76.86
2022-10-16T22:39:02.788Z,77.47
2022-10-16T22:41:31.103Z,78.00
2022-10-16T22:44:00.552Z,76.97
2022-10-16T22:46:30.843Z,76.79
2022-10-16T22:48:59.837Z,76.40
2022-10-16T22:51:28.502Z,76.48
2022-10-16T22:53:59.268Z,75.38
2022-10-16T22:56:28.326Z,76.62
2022-10-16T22:58:56.714Z,75.10
2022-10-16T23:01:29.139Z,74.12
2022-10-16T23:03:57.603Z,74.07
2022-10-16T23:06:26.080Z,74.40
2022-10-16T23:08:55.616Z,74.38
2022-10-16T23:11:24.802Z,75.16
2022-10-16T23:13:53.085Z,75.89
2022-10-16T23:16:23.386Z,76.04
2022-10-16T23:18:52.953Z,75.28
2022-10-16T23:21:22.858Z,74.63
2022-10-16T23:23:52.007Z,76.70
2022-10-16T23:26:22.225Z,77.51
2022-10-16T23:28:50.458Z,76.83
2022-10-16T23:31:19.612Z,76.77
2022-10-16T23:33:47.765Z,77.72
2022-10-16T23:36:18.567Z,77.42
2022-10-16T23:38:47.444Z,77.70
2022-10-16T23:41:16.241Z,77.20
2022-10-16T23:43:44.329Z,76.14
2022-10-16T23:46:14.269Z,75.87
2022-10-16T23:48:42.675Z,76.30
2022-10-16T23:51:11.454Z,75.42
2022-10-16T23:53:41.435Z,75.81
2022-10-16T23:56:10.437Z,76.31
2022-10-16T23:58:39.110Z,77.16
